createdAt,value
2023-02-26T00:00:46.218Z,1.40
2023-02-26T00:03:13.853Z,1.30
2023-02-26T00:05:41.414Z,1.30
2023-02-26T00:08:09.302Z,1.10
2023-02-26T00:10:36.865Z,1.40
2023-02-26T00:13:05.000Z,1.20
2023-02-26T00:15:33.720Z,1.42
2023-02-26T00:18:07.640Z,1.35
2023-02-26T00:20:37.938Z,1.30
2023-02-26T00:23:06.055Z,1.20
2023-02-26T00:25:33.657Z,0.98
2023-02-26T00:28:01.848Z,1.35
2023-02-26T00:30:30.251Z,1.50
2023-02-26T00:32:58.281Z,1.27
2023-02-26T00:35:28.288Z,1.15
2023-02-26T00:38:04.493Z,1.20
2023-02-26T00:40:39.466Z,1.20
2023-02-26T00:43:09.240Z,1.00
2023-02-26T00:45:40.087Z,1.10
2023-02-26T00:48:23.683Z,1.25
2023-02-26T00:51:03.482Z,1.00
2023-02-26T00:53:37.078Z,1.15
2023-02-26T00:56:04.715Z,1.25
2023-02-26T00:58:32.291Z,1.17
2023-02-26T01:01:00.880Z,1.20
2023-02-26T01:03:29.848Z,1.80
2023-02-26T01:05:59.323Z,1.02
2023-02-26T01:08:33.699Z,1.23
2023-02-26T01:11:02.017Z,1.05
2023-02-26T01:13:29.933Z,1.40
2023-02-26T01:16:06.045Z,1.17
2023-02-26T01:18:42.430Z,1.13
2023-02-26T01:21:16.370Z,1.20
2023-02-26T01:23:48.573Z,1.10
2023-02-26T01:26:23.652Z,0.90
2023-02-26T01:28:52.234Z,1.35
2023-02-26T01:31:34.021Z,1.70
2023-02-26T01:34:07.454Z,1.73
2023-02-26T01:36:42.044Z,1.30
2023-02-26T01:39:17.266Z,1.00
2023-02-26T01:41:48.730Z,0.95
2023-02-26T01:44:24.505Z,1.15
2023-02-26T01:47:16.971Z,0.90
2023-02-26T01:49:45.735Z,1.20
2023-02-26T01:52:57.545Z,1.02
2023-02-26T01:55:29.073Z,0.93
2023-02-26T01:58:00.223Z,1.05
2023-02-26T02:00:28.446Z,1.10
2023-02-26T02:02:56.223Z,1.05
2023-02-26T02:05:29.882Z,1.10
2023-02-26T02:07:58.488Z,1.23
2023-02-26T02:10:27.771Z,1.17
2023-02-26T02:13:04.348Z,1.30
2023-02-26T02:15:41.097Z,1.23
2023-02-26T02:18:15.723Z,1.38
2023-02-26T02:21:16.866Z,1.00
2023-02-26T02:23:49.113Z,0.98
2023-02-26T02:26:39.922Z,1.30
2023-02-26T02:29:28.582Z,1.17
2023-02-26T02:32:01.293Z,1.48
2023-02-26T02:34:35.760Z,1.17
2023-02-26T02:37:07.474Z,1.15
2023-02-26T02:39:41.919Z,1.50
2023-02-26T02:42:21.218Z,1.23
2023-02-26T02:44:53.186Z,1.30
2023-02-26T02:47:24.318Z,1.40
2023-02-26T02:49:55.892Z,1.58
2023-02-26T02:52:34.592Z,1.38
2023-02-26T02:55:06.350Z,1.33
2023-02-26T02:57:38.412Z,1.48
2023-02-26T03:00:10.592Z,1.17
2023-02-26T03:02:44.490Z,1.60
2023-02-26T03:05:12.160Z,1.50
2023-02-26T03:07:45.020Z,1.80
2023-02-26T03:10:15.423Z,1.48
2023-02-26T03:12:43.046Z,1.05
2023-02-26T03:15:11.614Z,1.50
2023-02-26T03:17:52.675Z,1.60
2023-02-26T03:20:26.238Z,1.17
2023-02-26T03:23:04.951Z,1.05
2023-02-26T03:25:39.363Z,1.65
2023-02-26T03:28:11.403Z,1.45
2023-02-26T03:30:43.502Z,1.85
2023-02-26T03:33:18.711Z,1.08
2023-02-26T03:35:52.072Z,1.20
2023-02-26T03:38:26.984Z,1.52
2023-02-26T03:40:59.924Z,1.00
2023-02-26T03:43:32.652Z,1.42
2023-02-26T03:46:04.542Z,1.35
2023-02-26T03:48:36.036Z,1.20
2023-02-26T03:51:08.906Z,0.90
2023-02-26T03:53:48.916Z,1.05
2023-02-26T03:56:26.260Z,1.20
2023-02-26T03:59:05.978Z,1.13
2023-02-26T04:01:50.628Z,1.20
2023-02-26T04:04:26.460Z,1.25
2023-02-26T04:06:55.233Z,1.10
2023-02-26T04:09:23.984Z,1.35
2023-02-26T04:11:53.707Z,1.00
2023-02-26T04:14:21.587Z,1.20
2023-02-26T04:16:49.406Z,0.82
2023-02-26T04:19:17.115Z,1.20
2023-02-26T04:21:47.022Z,1.27
2023-02-26T04:24:16.438Z,1.00
2023-02-26T04:26:45.419Z,1.20
2023-02-26T04:29:13.297Z,1.33
2023-02-26T04:31:41.214Z,1.13
2023-02-26T04:34:08.876Z,0.98
2023-02-26T04:36:36.479Z,0.80
2023-02-26T04:39:05.563Z,1.08
2023-02-26T04:41:33.608Z,0.80
2023-02-26T04:44:01.224Z,1.02
2023-02-26T04:46:31.793Z,1.50
2023-02-26T04:49:00.186Z,0.80
2023-02-26T04:51:27.921Z,1.02
2023-02-26T04:53:55.864Z,1.27
2023-02-26T04:56:26.041Z,1.40
2023-02-26T04:58:54.247Z,1.33
2023-02-26T05:01:27.691Z,1.10
2023-02-26T05:03:55.602Z,0.93
2023-02-26T05:06:23.594Z,1.30
2023-02-26T05:08:51.445Z,1.40
2023-02-26T05:11:19.628Z,0.98
2023-02-26T05:13:49.525Z,1.58
2023-02-26T05:16:18.226Z,0.75
2023-02-26T05:18:45.901Z,0.98
2023-02-26T05:21:13.554Z,1.10
2023-02-26T05:23:41.142Z,1.33
2023-02-26T05:26:08.808Z,0.90
2023-02-26T05:28:36.879Z,1.20
2023-02-26T05:31:06.640Z,1.00
2023-02-26T05:33:34.290Z,1.20
2023-02-26T05:36:01.969Z,1.10
2023-02-26T05:38:29.525Z,1.10
2023-02-26T05:40:58.727Z,1.15
2023-02-26T05:43:27.377Z,0.82
2023-02-26T05:45:56.028Z,1.10
2023-02-26T05:48:25.075Z,0.90
2023-02-26T05:50:53.058Z,1.25
2023-02-26T05:53:21.012Z,1.08
2023-02-26T05:55:48.937Z,0.90
2023-02-26T05:58:16.542Z,1.20
2023-02-26T06:00:44.188Z,1.10
2023-02-26T06:03:11.802Z,1.00
2023-02-26T06:05:40.739Z,1.17
2023-02-26T06:08:08.478Z,1.08
2023-02-26T06:10:36.013Z,0.95
2023-02-26T06:13:03.575Z,1.10
2023-02-26T06:15:31.128Z,0.90
2023-02-26T06:17:58.666Z,1.13
2023-02-26T06:20:26.246Z,1.20
2023-02-26T06:22:55.219Z,1.00
2023-02-26T06:25:22.824Z,1.20
2023-02-26T06:27:50.418Z,1.10
2023-02-26T06:30:19.159Z,1.13
2023-02-26T06:32:46.856Z,1.25
2023-02-26T06:35:14.449Z,1.08
2023-02-26T06:37:42.050Z,1.35
2023-02-26T06:40:12.953Z,1.55
2023-02-26T06:42:40.500Z,1.85
2023-02-26T06:45:08.913Z,1.42
2023-02-26T06:47:36.485Z,1.30
2023-02-26T06:50:05.160Z,1.30
2023-02-26T06:52:32.953Z,1.75
2023-02-26T06:55:00.620Z,1.20
2023-02-26T06:57:29.541Z,1.42
2023-02-26T06:59:57.143Z,0.90
2023-02-26T07:02:24.897Z,1.30
2023-02-26T07:04:52.723Z,2.38
2023-02-26T07:07:20.525Z,1.23
2023-02-26T07:09:48.970Z,1.42
2023-02-26T07:12:16.528Z,1.65
2023-02-26T07:14:46.048Z,1.60
2023-02-26T07:17:20.287Z,1.75
2023-02-26T07:19:48.552Z,1.70
2023-02-26T07:22:16.519Z,1.30
2023-02-26T07:24:44.665Z,1.38
2023-02-26T07:27:12.754Z,1.40
2023-02-26T07:29:40.307Z,1.90
2023-02-26T07:32:09.561Z,1.15
2023-02-26T07:34:37.236Z,1.40
2023-02-26T07:37:04.856Z,1.88
2023-02-26T07:39:32.386Z,2.40
2023-02-26T07:42:00.199Z,1.23
2023-02-26T07:44:29.872Z,1.73
2023-02-26T07:46:57.443Z,1.50
2023-02-26T07:49:26.434Z,1.27
2023-02-26T07:51:54.593Z,1.73
2023-02-26T07:54:22.227Z,1.88
2023-02-26T07:56:50.534Z,1.30
2023-02-26T07:59:18.154Z,1.67
2023-02-26T08:01:45.816Z,2.17
2023-02-26T08:04:13.544Z,1.30
2023-02-26T08:06:42.544Z,1.33
2023-02-26T08:09:10.087Z,1.15
2023-02-26T08:11:40.347Z,1.25
2023-02-26T08:14:08.153Z,3.40
2023-02-26T08:16:35.712Z,1.67
2023-02-26T08:19:03.505Z,2.65
2023-02-26T08:21:31.093Z,5.28
2023-02-26T08:24:00.036Z,1.10
2023-02-26T08:26:28.002Z,1.92
2023-02-26T08:28:55.728Z,1.30
2023-02-26T08:31:23.467Z,1.65
2023-02-26T08:33:51.231Z,1.58
2023-02-26T08:36:18.871Z,1.40
2023-02-26T08:38:46.474Z,1.65
2023-02-26T08:41:15.496Z,1.70
2023-02-26T08:43:43.054Z,1.45
2023-02-26T08:46:10.705Z,1.40
2023-02-26T08:48:38.225Z,2.30
2023-02-26T08:51:06.222Z,1.45
2023-02-26T08:53:33.812Z,1.17
2023-02-26T08:56:01.406Z,1.20
2023-02-26T08:58:32.153Z,1.02
2023-02-26T09:00:59.889Z,0.85
2023-02-26T09:03:27.682Z,1.35
2023-02-26T09:05:55.303Z,1.20
2023-02-26T09:08:22.885Z,1.38
2023-02-26T09:10:52.701Z,1.30
2023-02-26T09:13:20.387Z,1.00
2023-02-26T09:15:50.184Z,1.17
2023-02-26T09:18:17.867Z,1.17
2023-02-26T09:20:45.959Z,1.52
2023-02-26T09:23:13.911Z,1.10
2023-02-26T09:25:41.617Z,0.98
2023-02-26T09:28:09.475Z,1.20
2023-02-26T09:30:37.151Z,1.00
2023-02-26T09:33:06.215Z,1.02
2023-02-26T09:35:33.801Z,0.82
2023-02-26T09:38:01.356Z,1.27
2023-02-26T09:40:38.877Z,1.02
2023-02-26T09:43:31.390Z,1.10
2023-02-26T09:46:04.016Z,1.25
2023-02-26T09:48:35.229Z,1.10
2023-02-26T09:51:03.105Z,1.10
2023-02-26T09:53:34.120Z,1.27
2023-02-26T09:56:05.422Z,0.80
2023-02-26T09:58:36.729Z,0.90
2023-02-26T10:01:11.628Z,0.80
2023-02-26T10:03:57.791Z,0.95
2023-02-26T10:06:29.311Z,0.93
2023-02-26T10:09:16.450Z,1.02
2023-02-26T10:11:51.845Z,0.80
2023-02-26T10:14:25.360Z,0.95
2023-02-26T10:16:56.122Z,0.85
2023-02-26T10:19:30.852Z,1.60
2023-02-26T10:22:01.908Z,0.80
2023-02-26T10:24:38.750Z,1.83
2023-02-26T10:27:10.369Z,1.25
2023-02-26T10:29:43.794Z,0.57
2023-02-26T10:32:24.234Z,3.45
2023-02-26T10:34:57.527Z,1.00
2023-02-26T10:37:35.922Z,2.13
2023-02-26T10:40:12.205Z,0.90
2023-02-26T10:42:42.886Z,2.35
2023-02-26T10:45:25.263Z,1.40
2023-02-26T10:48:02.421Z,1.17
2023-02-26T10:50:32.163Z,1.05
2023-02-26T10:53:00.336Z,0.50
2023-02-26T10:55:37.183Z,0.65
2023-02-26T10:58:07.310Z,0.70
2023-02-26T11:00:36.224Z,0.50
2023-02-26T11:03:05.638Z,0.75
2023-02-26T11:05:35.540Z,0.55
2023-02-26T11:08:05.691Z,1.52
2023-02-26T11:10:42.263Z,1.10
2023-02-26T11:13:10.407Z,0.85
2023-02-26T11:15:38.418Z,0.70
2023-02-26T11:18:06.268Z,1.58
2023-02-26T11:20:41.861Z,3.67
2023-02-26T11:23:14.048Z,0.90
2023-02-26T11:25:41.976Z,0.73
2023-02-26T11:28:22.214Z,0.90
2023-02-26T11:30:51.667Z,0.65
2023-02-26T11:33:24.290Z,0.60
2023-02-26T11:35:53.742Z,0.93
2023-02-26T11:38:23.929Z,1.40
2023-02-26T11:40:56.012Z,0.80
2023-02-26T11:43:25.498Z,0.80
2023-02-26T11:45:56.698Z,0.98
2023-02-26T11:48:26.127Z,0.90
2023-02-26T11:50:58.754Z,2.00
2023-02-26T11:53:30.458Z,0.90
2023-02-26T11:56:02.428Z,1.10
2023-02-26T11:58:36.617Z,1.00
2023-02-26T12:01:05.710Z,1.02
2023-02-26T12:03:35.629Z,2.13
2023-02-26T12:06:05.299Z,1.02
2023-02-26T12:08:38.287Z,1.20
2023-02-26T12:11:34.965Z,0.90
2023-02-26T12:14:16.343Z,1.00
2023-02-26T12:16:52.580Z,0.80
2023-02-26T12:19:42.034Z,1.08
2023-02-26T12:22:41.816Z,1.23
2023-02-26T12:25:27.069Z,0.70
2023-02-26T12:28:24.634Z,1.00
2023-02-26T12:31:04.625Z,1.20
2023-02-26T12:33:44.468Z,1.27
2023-02-26T12:36:48.488Z,1.00
2023-02-26T12:39:44.589Z,1.13
2023-02-26T12:42:23.504Z,0.90
2023-02-26T12:45:09.887Z,1.67
2023-02-26T12:47:48.346Z,1.00
2023-02-26T12:50:29.358Z,1.50
2023-02-26T12:53:15.045Z,1.02
2023-02-26T12:55:54.104Z,1.10
2023-02-26T12:58:52.230Z,1.23
2023-02-26T13:01:32.905Z,1.02
2023-02-26T13:04:42.809Z,0.98
2023-02-26T13:07:21.555Z,1.85
2023-02-26T13:09:59.917Z,1.10
2023-02-26T13:12:40.213Z,1.40
2023-02-26T13:15:25.361Z,0.98
2023-02-26T13:18:03.138Z,0.80
2023-02-26T13:20:30.850Z,1.08
2023-02-26T13:23:02.070Z,1.10
2023-02-26T13:25:36.377Z,1.05
2023-02-26T13:28:12.556Z,1.10
2023-02-26T13:30:46.678Z,0.98
2023-02-26T13:33:25.796Z,0.80
2023-02-26T13:35:55.328Z,1.10
2023-02-26T13:38:29.724Z,1.20
2023-02-26T13:41:06.248Z,1.40
2023-02-26T13:43:47.172Z,1.23
2023-02-26T13:46:30.974Z,1.02
2023-02-26T13:49:04.767Z,1.17
2023-02-26T13:51:36.560Z,1.35
2023-02-26T13:54:08.972Z,1.33
2023-02-26T13:56:56.621Z,1.45
2023-02-26T13:59:47.364Z,1.10
2023-02-26T14:02:38.156Z,1.10
2023-02-26T14:05:29.237Z,1.58
2023-02-26T14:08:18.033Z,1.42
2023-02-26T14:10:47.505Z,1.20
2023-02-26T14:13:18.294Z,1.23
2023-02-26T14:16:00.517Z,2.63
2023-02-26T14:18:36.487Z,1.20
2023-02-26T14:21:43.640Z,2.70
2023-02-26T14:24:18.136Z,1.35
2023-02-26T14:26:48.511Z,2.50
2023-02-26T14:29:22.739Z,1.27
2023-02-26T14:32:13.168Z,0.80
2023-02-26T14:34:51.873Z,0.88
2023-02-26T14:37:22.779Z,1.00
2023-02-26T14:39:55.350Z,1.05
2023-02-26T14:42:34.651Z,1.05
2023-02-26T14:45:11.509Z,1.10
2023-02-26T14:47:40.781Z,1.65
2023-02-26T14:50:09.652Z,2.17
2023-02-26T14:53:04.343Z,2.92
2023-02-26T14:55:45.336Z,2.15
2023-02-26T14:58:28.139Z,0.70
2023-02-26T15:01:16.065Z,3.15
2023-02-26T15:04:06.176Z,1.08
2023-02-26T15:06:51.311Z,1.55
2023-02-26T15:09:24.054Z,1.60
2023-02-26T15:12:03.647Z,0.85
2023-02-26T15:15:07.109Z,1.17
2023-02-26T15:17:57.752Z,1.27
2023-02-26T15:20:34.586Z,2.10
2023-02-26T15:23:15.277Z,2.85
2023-02-26T15:25:45.745Z,1.30
2023-02-26T15:28:17.363Z,1.42
2023-02-26T15:30:49.650Z,2.28
2023-02-26T15:33:20.467Z,1.35
2023-02-26T15:35:51.829Z,1.25
2023-02-26T15:38:20.245Z,1.52
2023-02-26T15:40:50.280Z,2.30
2023-02-26T15:43:22.628Z,1.20
2023-02-26T15:45:52.994Z,2.90
2023-02-26T15:48:23.129Z,1.00
2023-02-26T15:50:55.770Z,1.60
2023-02-26T15:53:29.868Z,1.48
2023-02-26T15:55:59.737Z,0.82
2023-02-26T15:58:37.379Z,1.40
2023-02-26T16:01:07.238Z,1.05
2023-02-26T16:03:40.262Z,2.78
2023-02-26T16:06:13.591Z,1.30
2023-02-26T16:08:41.466Z,3.00
2023-02-26T16:11:09.550Z,1.17
2023-02-26T16:13:43.138Z,2.97
2023-02-26T16:16:16.641Z,1.42
2023-02-26T16:18:46.304Z,2.50
2023-02-26T16:21:23.413Z,3.25
2023-02-26T16:23:54.116Z,1.83
2023-02-26T16:26:25.763Z,1.50
2023-02-26T16:28:58.102Z,1.45
2023-02-26T16:31:30.844Z,2.08
2023-02-26T16:34:24.628Z,1.58
2023-02-26T16:36:57.770Z,1.85
2023-02-26T16:39:27.711Z,1.35
2023-02-26T16:42:10.234Z,0.82
2023-02-26T16:44:46.259Z,0.70
2023-02-26T16:47:14.363Z,1.33
2023-02-26T16:49:43.530Z,0.77
2023-02-26T16:52:17.573Z,1.33
2023-02-26T16:54:56.598Z,1.60
2023-02-26T16:57:28.752Z,1.13
2023-02-26T16:59:59.796Z,1.50
2023-02-26T17:02:30.323Z,1.00
2023-02-26T17:05:01.876Z,1.30
2023-02-26T17:07:33.564Z,1.10
2023-02-26T17:10:09.892Z,1.00
2023-02-26T17:12:46.444Z,1.20
2023-02-26T17:15:20.894Z,1.27
2023-02-26T17:17:49.025Z,1.20
2023-02-26T17:20:17.188Z,1.08
2023-02-26T17:22:46.374Z,1.92
2023-02-26T17:25:18.502Z,1.23
2023-02-26T17:27:47.186Z,1.05
2023-02-26T17:30:18.729Z,1.05
2023-02-26T17:32:46.991Z,1.42
2023-02-26T17:35:15.952Z,1.27
2023-02-26T17:37:45.026Z,2.00
2023-02-26T17:40:21.349Z,1.60
2023-02-26T17:42:49.756Z,1.73
2023-02-26T17:45:20.083Z,1.50
2023-02-26T17:47:49.004Z,1.23
2023-02-26T17:50:34.762Z,1.00
2023-02-26T17:53:02.337Z,1.60
2023-02-26T17:55:31.689Z,1.35
2023-02-26T17:58:00.238Z,1.30
2023-02-26T18:00:28.145Z,1.30
2023-02-26T18:02:55.914Z,1.40
2023-02-26T18:05:23.669Z,1.40
2023-02-26T18:07:51.517Z,1.10
2023-02-26T18:10:23.820Z,1.48
2023-02-26T18:12:53.978Z,2.30
2023-02-26T18:15:21.851Z,2.67
2023-02-26T18:17:49.931Z,1.80
2023-02-26T18:20:22.380Z,2.35
2023-02-26T18:22:50.604Z,1.45
2023-02-26T18:25:18.919Z,2.55
2023-02-26T18:27:50.869Z,1.98
2023-02-26T18:30:23.019Z,2.72
2023-02-26T18:32:50.908Z,2.10
2023-02-26T18:35:18.874Z,1.60
2023-02-26T18:37:47.697Z,2.22
2023-02-26T18:40:17.148Z,1.67
2023-02-26T18:42:45.065Z,4.20
2023-02-26T18:45:13.017Z,2.25
2023-02-26T18:47:42.588Z,1.90
2023-02-26T18:50:14.601Z,2.13
2023-02-26T18:52:46.254Z,1.80
2023-02-26T18:55:15.042Z,2.28
2023-02-26T18:57:43.156Z,2.60
2023-02-26T19:00:14.658Z,2.33
2023-02-26T19:02:45.443Z,3.05
2023-02-26T19:05:14.210Z,2.47
2023-02-26T19:07:42.709Z,2.75
2023-02-26T19:10:14.589Z,2.40
2023-02-26T19:12:45.628Z,2.60
2023-02-26T19:15:14.456Z,2.80
2023-02-26T19:17:43.745Z,2.30
2023-02-26T19:20:15.417Z,2.50
2023-02-26T19:22:43.332Z,2.60
2023-02-26T19:25:11.254Z,2.85
2023-02-26T19:27:39.621Z,2.60
2023-02-26T19:30:08.435Z,2.55
2023-02-26T19:32:36.105Z,2.33
2023-02-26T19:35:06.483Z,2.40
2023-02-26T19:37:34.244Z,2.38
2023-02-26T19:40:05.747Z,2.40
2023-02-26T19:42:33.351Z,2.85
2023-02-26T19:45:01.419Z,2.80
2023-02-26T19:47:29.191Z,2.38
2023-02-26T19:49:56.794Z,2.17
2023-02-26T19:52:25.631Z,2.67
2023-02-26T19:54:53.339Z,2.65
2023-02-26T19:57:21.371Z,2.53
2023-02-26T19:59:49.012Z,2.67
2023-02-26T20:02:17.278Z,2.47
2023-02-26T20:04:44.904Z,2.70
2023-02-26T20:07:13.691Z,2.85
2023-02-26T20:09:42.846Z,2.45
2023-02-26T20:12:10.601Z,2.70
2023-02-26T20:14:38.424Z,2.50
2023-02-26T20:17:06.306Z,3.35
2023-02-26T20:19:34.056Z,2.80
2023-02-26T20:22:01.801Z,3.08
2023-02-26T20:24:29.593Z,2.97
2023-02-26T20:26:58.493Z,3.45
2023-02-26T20:29:26.062Z,3.60
2023-02-26T20:31:54.025Z,3.70
2023-02-26T20:34:21.913Z,2.90
2023-02-26T20:36:50.655Z,2.75
2023-02-26T20:39:25.523Z,2.95
2023-02-26T20:41:53.171Z,3.40
2023-02-26T20:44:22.210Z,3.60
2023-02-26T20:46:50.040Z,3.30
2023-02-26T20:49:19.419Z,3.72
2023-02-26T20:51:50.457Z,3.72
2023-02-26T20:54:20.163Z,3.58
2023-02-26T20:56:48.730Z,3.30
2023-02-26T20:59:16.595Z,2.83
2023-02-26T21:01:45.718Z,3.42
2023-02-26T21:04:14.201Z,3.92
2023-02-26T21:06:44.847Z,2.92
2023-02-26T21:09:12.952Z,3.15
2023-02-26T21:11:40.995Z,3.05
2023-02-26T21:14:09.953Z,3.90
2023-02-26T21:16:39.768Z,5.30
2023-02-26T21:19:09.297Z,5.10
2023-02-26T21:21:37.462Z,4.72
2023-02-26T21:24:05.617Z,4.20
2023-02-26T21:26:35.024Z,4.03
2023-02-26T21:29:04.772Z,3.83
2023-02-26T21:31:32.557Z,2.83
2023-02-26T21:34:08.265Z,3.00
2023-02-26T21:36:46.400Z,3.97
2023-02-26T21:39:18.400Z,3.50
2023-02-26T21:41:46.136Z,3.00
2023-02-26T21:44:13.907Z,2.95
2023-02-26T21:46:45.943Z,3.03
2023-02-26T21:49:13.942Z,3.70
2023-02-26T21:51:41.679Z,3.38
2023-02-26T21:54:10.997Z,3.78
2023-02-26T21:56:38.802Z,3.35
2023-02-26T21:59:06.546Z,4.15
2023-02-26T22:01:34.167Z,4.22
2023-02-26T22:04:03.755Z,4.38
2023-02-26T22:06:31.383Z,3.75
2023-02-26T22:08:59.136Z,4.72
2023-02-26T22:11:33.022Z,4.55
2023-02-26T22:14:00.630Z,4.78
2023-02-26T22:16:28.243Z,4.32
2023-02-26T22:18:55.791Z,4.43
2023-02-26T22:21:24.180Z,5.45
2023-02-26T22:23:51.980Z,4.45
2023-02-26T22:26:19.592Z,3.80
2023-02-26T22:28:48.566Z,4.05
2023-02-26T22:31:16.204Z,3.97
2023-02-26T22:33:43.941Z,4.05
2023-02-26T22:36:11.551Z,4.40
2023-02-26T22:38:39.391Z,3.88
2023-02-26T22:41:07.394Z,4.68
2023-02-26T22:43:34.944Z,6.35
2023-02-26T22:46:04.806Z,4.90
2023-02-26T22:48:32.401Z,4.85
2023-02-26T22:51:00.055Z,3.85
2023-02-26T22:53:27.639Z,3.95
2023-02-26T22:55:55.563Z,4.43
2023-02-26T22:58:24.418Z,4.03
2023-02-26T23:00:59.522Z,4.32
2023-02-26T23:03:29.711Z,3.85
2023-02-26T23:05:57.629Z,4.32
2023-02-26T23:08:25.746Z,4.65
2023-02-26T23:10:54.966Z,3.95
2023-02-26T23:13:22.820Z,3.78
2023-02-26T23:15:50.479Z,3.63
2023-02-26T23:18:17.999Z,4.03
2023-02-26T23:20:48.211Z,3.42
2023-02-26T23:23:16.171Z,4.05
2023-02-26T23:25:43.817Z,3.72
2023-02-26T23:28:11.863Z,3.75
2023-02-26T23:30:42.336Z,3.30
2023-02-26T23:33:10.206Z,3.67
2023-02-26T23:35:38.180Z,4.22
2023-02-26T23:38:07.456Z,3.22
2023-02-26T23:40:35.084Z,3.40
2023-02-26T23:43:02.709Z,3.67
2023-02-26T23:45:30.329Z,3.28
2023-02-26T23:47:57.860Z,2.97
2023-02-26T23:50:26.518Z,3.13
2023-02-26T23:52:54.109Z,4.03
2023-02-26T23:55:23.162Z,3.58
2023-02-26T23:57:50.700Z,3.40
